TimeMDT,TemperatureF,Dew PointF,Humidity,Sea Level PressureIn,VisibilityMPH,Wind Direction,Wind SpeedMPH,Gust SpeedMPH,PrecipitationIn,Events,Conditions,WindDirDegrees,DateUTC
12:54 AM,35.1,25.0,67,29.90,10.0,West,18.4,-,N/A,,Overcast,260,2013-04-11 06:54:00
1:54 AM,35.1,25.0,67,29.88,10.0,WSW,13.8,-,N/A,,Overcast,250,2013-04-11 07:54:00
2:54 AM,35.1,26.1,70,29.85,10.0,SW,9.2,-,N/A,,Partly Cloudy,220,2013-04-11 08:54:00
3:54 AM,35.1,27.0,72,29.82,10.0,West,13.8,23.0,N/A,,Partly Cloudy,260,2013-04-11 09:54:00
4:54 AM,35.1,27.0,72,29.78,10.0,WSW,23.0,-,N/A,,Partly Cloudy,250,2013-04-11 10:54:00
5:54 AM,34.0,28.0,79,29.79,10.0,WSW,19.6,27.6,N/A,,Partly Cloudy,240,2013-04-11 11:54:00
6:54 AM,33.1,28.9,85,29.83,10.0,SW,12.7,-,N/A,,Mostly Cloudy,220,2013-04-11 12:54:00
7:54 AM,37.0,30.0,76,29.84,10.0,West,15.0,20.7,N/A,,Clear,270,2013-04-11 13:54:00
8:54 AM,39.0,30.0,70,29.85,10.0,West,21.9,28.8,N/A,,Scattered Clouds,280,2013-04-11 14:54:00
9:54 AM,41.0,30.0,65,29.85,10.0,West,21.9,-,N/A,,Overcast,280,2013-04-11 15:54:00
11:21 AM,37.4,26.6,65,29.90,4.0,NNW,16.1,25.3,0.00,Snow,Light Snow,340,2013-04-11 17:21:00
11:29 AM,37.4,26.6,65,29.90,2.0,NNW,9.2,20.7,0.00,Snow,Light Snow,330,2013-04-11 17:29:00
11:39 AM,39.2,28.4,65,29.90,8.0,West,6.9,-,0.00,,Unknown,260,2013-04-11 17:39:00
11:54 AM,42.1,28.9,60,29.86,10.0,WNW,5.8,-,0.00,,Overcast,300,2013-04-11 17:54:00
12:54 PM,46.9,19.9,34,29.81,10.0,NW,19.6,25.3,N/A,,Mostly Cloudy,310,2013-04-11 18:54:00
1:54 PM,48.9,21.0,33,29.80,10.0,WNW,15.0,23.0,N/A,,Overcast,290,2013-04-11 19:54:00
2:54 PM,48.9,17.1,28,29.79,10.0,West,16.1,-,N/A,,Mostly Cloudy,270,2013-04-11 20:54:00
3:54 PM,52.0,17.1,25,29.77,10.0,West,18.4,25.3,N/A,,Mostly Cloudy,270,2013-04-11 21:54:00
4:54 PM,51.1,17.1,26,29.77,10.0,West,16.1,24.2,N/A,,Mostly Cloudy,280,2013-04-11 22:54:00
5:54 PM,50.0,19.9,31,29.78,10.0,West,19.6,26.5,N/A,,Mostly Cloudy,270,2013-04-11 23:54:00
6:54 PM,46.9,19.9,34,29.79,10.0,WSW,20.7,32.2,N/A,,Partly Cloudy,250,2013-04-12 00:54:00
7:54 PM,44.1,21.0,40,29.79,10.0,WSW,21.9,-,N/A,,Scattered Clouds,250,2013-04-12 01:54:00
8:54 PM,41.0,21.0,45,29.83,10.0,West,19.6,-,N/A,,Mostly Cloudy,260,2013-04-12 02:54:00
9:54 PM,39.9,21.9,49,29.85,10.0,West,13.8,-,N/A,,Mostly Cloudy,260,2013-04-12 03:54:00
10:54 PM,39.0,21.0,49,29.86,10.0,West,11.5,-,N/A,,Partly Cloudy,270,2013-04-12 04:54:00